Port Imperial New Jersey — WBR3133 — position and weather

sailwx.info

Track history (hours):
 
Tides and Currents Weather Stations Pressure Air Temp Water Temp Dewpoint Dewpoint Depression Visibility Wind Speed Wind Dir Waves Ship Positions

Port Imperial New Jersey

Owner: PORT IMPERIAL FERRY CORP, WEEHAWKEN, NJ. More information available from US FCC via Universal Licensing System and Coast Guard Vessel Documentation Center.

Last reported at 2015-Jan-26 15:20 UTC. Time now 2015-Jan-27 08:20 UTC.
Position N 40°47' W 074°01'.

Length 31 m.

Type: Passenger vessel. MMSI: 366990550.

Date/timePositionNaut miles runAvg speedWind from/ knotsBaromVisibWave heightAir tempDewpointWater temp
2015-Jan-26 15:20N 40°47' W 074°01'1 1.3
2015-Jan-26 14:34N 40°46' W 074°00'0 0.1
2015-Jan-26 13:33N 40°46' W 074°01'0 0.0
2015-Jan-26 12:33N 40°46' W 074°01'1 1.0
2015-Jan-26 11:33N 40°47' W 074°01'  
2015-Jan-24 00:15N 40°47' W 074°01'2 2.2
2015-Jan-23 23:33N 40°45' W 074°01'2 2.0
2015-Jan-23 22:33N 40°43' W 074°01'3 0.9
2015-Jan-23 18:28N 40°47' W 074°01'0 0.3
2015-Jan-23 17:33N 40°46' W 074°01'0 0.0
2015-Jan-23 15:13N 40°46' W 074°01'1 1.5
2015-Jan-23 14:33N 40°45' W 074°01'0 0.1
2015-Jan-23 13:33N 40°45' W 074°01'0 0.1
2015-Jan-23 12:34N 40°45' W 074°01'1 0.0
2015-Jan-22 15:14N 40°46' W 074°01'1 1.4
2015-Jan-22 14:33N 40°45' W 074°01'0 0.2
2015-Jan-22 13:33N 40°46' W 074°01'0 0.1
2015-Jan-22 12:33N 40°45' W 074°01'1 0.1
2015-Jan-21 15:15N 40°47' W 074°01'1 1.3
2015-Jan-21 14:33N 40°46' W 074°01'0 0.0
2015-Jan-21 13:33N 40°46' W 074°01'0 0.2
2015-Jan-21 12:33N 40°46' W 074°00'1 0.6
2015-Jan-21 11:33N 40°46' W 074°01'1 0.1
2015-Jan-21 00:33N 40°46' W 074°01'0 0.4
2015-Jan-20 23:34N 40°45' W 074°01'0 0.2
2015-Jan-20 22:33N 40°46' W 074°01'0 0.1
2015-Jan-20 21:33N 40°46' W 074°01'1 1.0
2015-Jan-20 20:33N 40°47' W 074°01'0 0.0
2015-Jan-20 15:14N 40°47' W 074°01'1 1.4
2015-Jan-20 14:34N 40°46' W 074°00'0 0.0
2015-Jan-20 13:33N 40°46' W 074°00'0 0.0
2015-Jan-20 12:34N 40°46' W 074°00'  
2015-Jan-16 18:15N 40°46' W 074°01'3111.0
2015-Jan-16 15:28N 41°17' W 073°57'  
Track history (hours):
 
Tides and Currents Weather Stations Pressure Air Temp Water Temp Dewpoint Dewpoint Depression Visibility Wind Speed Wind Dir Waves Ship Positions

Port Imperial New Jersey

Owner: PORT IMPERIAL FERRY CORP, WEEHAWKEN, NJ. More information available from US FCC via Universal Licensing System and Coast Guard Vessel Documentation Center.

Last reported at 2015-Jan-26 15:20 UTC. Time now 2015-Jan-27 08:20 UTC.
Position N 40°47' W 074°01'.

Length 31 m.

Type: Passenger vessel. MMSI: 366990550.

Date/timePositionNaut miles runAvg speedWind from/ knotsBaromVisibWave heightAir tempDewpointWater temp
2015-Jan-26 15:20N 40°47' W 074°01'1 1.3
2015-Jan-26 14:34N 40°46' W 074°00'0 0.1
2015-Jan-26 13:33N 40°46' W 074°01'0 0.0
2015-Jan-26 12:33N 40°46' W 074°01'1 1.0
2015-Jan-26 11:33N 40°47' W 074°01'  
2015-Jan-24 00:15N 40°47' W 074°01'2 2.2
2015-Jan-23 23:33N 40°45' W 074°01'2 2.0
2015-Jan-23 22:33N 40°43' W 074°01'3 0.9
2015-Jan-23 18:28N 40°47' W 074°01'0 0.3
2015-Jan-23 17:33N 40°46' W 074°01'0 0.0
2015-Jan-23 15:13N 40°46' W 074°01'1 1.5
2015-Jan-23 14:33N 40°45' W 074°01'0 0.1
2015-Jan-23 13:33N 40°45' W 074°01'0 0.1
2015-Jan-23 12:34N 40°45' W 074°01'1 0.0
2015-Jan-22 15:14N 40°46' W 074°01'1 1.4
2015-Jan-22 14:33N 40°45' W 074°01'0 0.2
2015-Jan-22 13:33N 40°46' W 074°01'0 0.1
2015-Jan-22 12:33N 40°45' W 074°01'1 0.1
2015-Jan-21 15:15N 40°47' W 074°01'1 1.3
2015-Jan-21 14:33N 40°46' W 074°01'0 0.0
2015-Jan-21 13:33N 40°46' W 074°01'0 0.2
2015-Jan-21 12:33N 40°46' W 074°00'1 0.6
2015-Jan-21 11:33N 40°46' W 074°01'1 0.1
2015-Jan-21 00:33N 40°46' W 074°01'0 0.4
2015-Jan-20 23:34N 40°45' W 074°01'0 0.2
2015-Jan-20 22:33N 40°46' W 074°01'0 0.1
2015-Jan-20 21:33N 40°46' W 074°01'1 1.0
2015-Jan-20 20:33N 40°47' W 074°01'0 0.0
2015-Jan-20 15:14N 40°47' W 074°01'1 1.4
2015-Jan-20 14:34N 40°46' W 074°00'0 0.0
2015-Jan-20 13:33N 40°46' W 074°00'0 0.0
2015-Jan-20 12:34N 40°46' W 074°00'  
2015-Jan-16 18:15N 40°46' W 074°01'3111.0
2015-Jan-16 15:28N 41°17' W 073°57'  

Dump ship's entire track history